NCAR-RAP Real-Time Weather Data

Output produced by METARs form (12 August 2020  18:44 UTC)
found at http://weather.rap.ucar.edu/surface/
 
KGSO 121754Z 13009KT 10SM BKN038 BKN100 BKN250 31/23 A3002 RMK AO2 SLP153 CB DSNT NE AND W-N T03060228 10311 20250 58012
KGSO 121654Z VRB06KT 10SM BKN036TCU 31/23 A3004 RMK AO2 SLP159 TCU SE AND W T03060228
KGSO 121554Z 12007KT 10SM BKN030 BKN250 29/23 A3005 RMK AO2 SLP163 T02940228
KGSO 121454Z 00000KT 10SM SCT026 BKN060 BKN250 28/23 A3006 RMK AO2 SLP164 T02830228 50003
KGSO 121354Z 00000KT 10SM SCT040 SCT070 SCT250 27/23 A3006 RMK AO2 SLP167 T02720228
KGSO 121254Z 00000KT 10SM FEW060 SCT250 26/23 A3006 RMK AO2 SLP167 T02610228
KGSO 121154Z 00000KT 10SM SCT250 25/23 A3005 RMK AO2 SLP162 T02500228 10250 20222 53014
KGSO 121054Z 00000KT 10SM FEW250 23/22 A3002 RMK AO2 SLP156 T02280222
KGSO 120954Z 00000KT 10SM FEW250 22/22 A3001 RMK AO2 SLP151 T02220217
KGSO 120854Z 00000KT 10SM CLR 23/22 A3000 RMK AO2 SLP148 T02330222 55003
KGSO 120754Z 30003KT 10SM CLR 23/22 A3000 RMK AO2 SLP145 T02330222
KGSO 120654Z 00000KT 10SM FEW250 23/22 A3000 RMK AO2 SLP146 T02280222
KGSO 120554Z 18003KT 10SM SCT250 23/23 A3001 RMK AO2 SLP151 T02330228 10256 20233 50002
KGSO 120454Z 21003KT 10SM FEW100 23/22 A3002 RMK AO2 SLP153 T02330222 403110217
KGSO 120354Z 25004KT 10SM FEW050 SCT250 24/22 A3001 RMK AO2 SLP152 T02390222
KGSO 120254Z 00000KT 10SM FEW040 SCT250 24/22 A3001 RMK AO2 SLP150 T02440222 51014
KGSO 120154Z 21003KT 10SM SCT250 24/22 A3001 RMK AO2 SLP150 T02390222
KGSO 120054Z 23003KT 10SM FEW110 SCT180 BKN250 24/22 A2998 RMK AO2 SLP141 T02440217
KGSO 112354Z 29006KT 10SM FEW037 FEW050 BKN100 BKN190 26/22 A2997 RMK AO2 RAB14E22 TSE31 SLP137 TS DSIPTD P0000 60000 T02560222 10311 20256 53003
KGSO 112332Z 24007KT 10SM FEW050 SCT070 BKN100 BKN250 27/22 A2997 RMK AO2 RAB14E22 TSE31 TS DSIPTD CB DSNT SW-W TCU DSNT NE P0000 T02670217
KGSO 112254Z 25006KT 10SM TS FEW040CB FEW080 BKN130 BKN250 27/22 A2996 RMK AO2 TSB02 SLP134 FRQ LTGIC NW TS NW MOV UNKN CB DSNT SW T02720222
KGSO 112203Z 20005KT 10SM TS FEW040CB FEW080 SCT180 BKN250 27/21 A2996 RMK AO2 TSB02 FRQ LTGICCG SW TS SW MOV UNKN TCU DSNT N T02720211
KGSO 112154Z 19007KT 10SM FEW040 FEW080 SCT180 BKN250 27/21 A2996 RMK AO2 TSB11E42 SLP133 TS DSIPTD OCNL LTGIC DSNT SW CB DSNT SW TCU DSNT N AND NW T02720206
KGSO 112143Z 16008KT 10SM FEW040TCU SCT080 SCT180 BKN250 28/22 A2996 RMK AO2 TSB11E42 TS DSITPD TCU SW TCU DSNT NW-N T02830222
KGSO 112113Z 15008KT 10SM TS SCT040CB SCT180 BKN250 29/23 A2996 RMK AO2 TSB11 FRQ LTGICCG S TS S MOV UNKN T02890228
KGSO 112054Z 14007KT 10SM SCT041TCU BKN180 BKN250 29/23 A2996 RMK AO2 SLP132 TCU S-NW T02890228 56013
KGSO 111954Z 16005KT 10SM BKN045TCU BKN180 BKN250 31/23 A2996 RMK AO2 SLP133 CB DSNT SE TCU OHD AND DSNT ALQDS T03060228
KGSO 111854Z 20005KT 10SM BKN036TCU BKN170 BKN250 31/23 A2998 RMK AO2 SLP139 CB DSNT W-N TCU ALQDS T03060228
KGSO 111754Z 22004KT 10SM BKN034 BKN160 BKN250 29/22 A3000 RMK AO2 SLP145 CB DSNT NW-N T02890222 10294 20228 58010
KGSO 111654Z VRB03KT 10SM BKN030 BKN150 29/23 A3001 RMK AO2 SLP148 T02940228
KGSO 111554Z VRB03KT 10SM FEW020 SCT150 SCT250 28/23 A3002 RMK AO2 SLP154 T02830228
KGSO 111454Z 19004KT 10SM FEW015 SCT090 BKN150 BKN250 26/23 A3003 RMK AO2 SLP157 T02610228 51007
KGSO 111354Z 26004KT 10SM FEW007 SCT085 BKN250 26/23 A3002 RMK AO2 SLP154 T02610233
KGSO 111254Z 25006KT 10SM FEW005 SCT090 BKN250 24/22 A3002 RMK AO2 SLP154 T02440222
KGSO 111154Z 26005KT 10SM FEW003 FEW120 23/22 A3001 RMK AO2 SLP150 T02280222 10228 20217 53010
KGSO 111140Z 23003KT 10SM FEW003 FEW120 23/22 A3001 RMK AO2 T02280222
KGSO 111054Z 22003KT 7SM FEW120 22/22 A2999 RMK AO2 SLP146 T02170217
KGSO 111004Z 17005KT 9SM FEW005 FEW120 22/22 A2998 RMK AO2 T02220222
KGSO 110954Z 17005KT 10SM FEW120 22/22 A2998 RMK AO2 SLP141 T02220222
KGSO 110854Z 00000KT 10SM OVC110 23/22 A2997 RMK AO2 SLP138 T02280222 56014
KGSO 110754Z 00000KT 10SM BKN120 23/22 A2998 RMK AO2 SLP138 T02280222
KGSO 110654Z 20003KT 10SM FEW005 SCT250 23/22 A2999 RMK AO2 SLP142 T02280222
KGSO 110554Z 21005KT 10SM FEW005 SCT120 22/22 A3002 RMK AO2 SLP152 T02220222 10250 20222 50004
KGSO 110546Z 21006KT 10SM FEW005 SCT120 23/22 A3002 RMK AO2 T02280222
KGSO 110454Z 20005KT 10SM SCT120 22/22 A3003 RMK AO2 SLP157 T02220217 403170211
KGSO 110354Z 23004KT 10SM FEW050 SCT100 23/22 A3002 RMK AO2 SLP153 T02280222
KGSO 110254Z 15003KT 10SM SCT050 23/22 A3001 RMK AO2 SLP149 T02280217 53000
KGSO 110154Z 15004KT 10SM SCT050 23/22 A3000 RMK AO2 SLP148 T02280217
KGSO 110054Z 18005KT 10SM FEW050 SCT250 23/22 A2999 RMK AO2 SLP144 T02330217
KGSO 102354Z 19007KT 10SM FEW046 SCT110 BKN250 25/21 A3001 RMK AO2 RAE10 TSE14 SLP150 TS MOV NW CB DSNT SE P0000 60000 T02500211 10317 20228 51003
KGSO 102320Z 23004KT 10SM FEW046 FEW080 BKN110 24/21 A3000 RMK AO2 LTG DSNT S RAE10 TSE14 TS MOV NW CB DSNT S P0000 T02440206
KGSO 102254Z 00000KT 10SM -TSRA SCT060CB SCT075 BKN095 23/21 A3000 RMK AO2 RAB27 SLP150 OCNL LTGICCG OHD TS OHD MOV NW P0000 T02330206
KGSO 102154Z 20014KT 10SM TS SCT049CB BKN110 BKN250 24/21 A3003 RMK AO2 TSB14 SLP159 OCNL LTGICCG SW TS SW MOV UNKN T02440206
KGSO 102120Z 15013G17KT 10SM TS SCT049CB BKN110 BKN250 27/20 A3000 RMK AO2 TSB14 OCNL LTGICCG S AND SW TS S AND SW MOV UNKN T02670200
KGSO 102054Z 10010KT 10SM SCT048TCU BKN110 BKN250 29/21 A3000 RMK AO2 SLP145 CB DSNT ALQDS TCU E AND DSNT ALQDS T02940211 56024
KGSO 101954Z 04006KT 10SM BKN049TCU BKN090 BKN250 30/22 A3001 RMK AO2 SLP150 CB DSNT N AND SW-W TCU OHD AND E-W AND DSNT ALQDS T03000217
KGSO 101854Z VRB04KT 10SM SCT045TCU BKN090 BKN250 31/22 A3004 RMK AO2 SLP158 CB DSNT SW AND NW-N TCU ALQDS T03110217